Time;durP1;ratioP1;P1;durP2;ratioP2;P2;SDS_P1;SDS_P2;PMS_P1;PMS_P2;Temp;Humidity;BMP_temperature;BMP_pressure;BME280_temperature;BME280_humidity;BME280_pressure;Samples;Min_cycle;Max_cycle;Signal;HPM_P1;HPM_P2
2022/07/08 00:00:24;;;;;;;217.43;146.23;;;;;;;19.46;76.34;100040.87;1721031;82;21544;-63
2022/07/08 00:02:51;;;;;;;219.10;154.13;;;;;;;19.40;78.59;100037.91;1714444;82;21714;-56
2022/07/08 00:05:18;;;;;;;230.60;154.90;;;;;;;19.33;80.58;100038.09;1656850;85;21512;-57
2022/07/08 00:07:46;;;;;;;239.47;156.73;;;;;;;19.27;80.51;100040.91;1718036;83;21081;-55
2022/07/08 00:10:13;;;;;;;220.57;152.00;;;;;;;19.18;82.10;100036.58;1750122;81;20933;-56
2022/07/08 00:12:41;;;;;;;229.73;159.23;;;;;;;19.11;86.46;100041.23;1753614;81;21092;-59
2022/07/08 00:15:10;;;;;;;221.77;149.27;;;;;;;19.02;90.51;100039.55;1751047;81;21238;-56
2022/07/08 00:17:37;;;;;;;229.00;153.10;;;;;;;18.98;92.99;100039.76;1749758;81;20964;-55
2022/07/08 00:20:06;;;;;;;231.07;153.67;;;;;;;18.90;93.34;100034.38;1753372;81;21074;-56
2022/07/08 00:22:34;;;;;;;234.37;156.57;;;;;;;18.87;94.06;100038.81;1749943;81;21068;-55
2022/07/08 00:25:02;;;;;;;226.80;158.77;;;;;;;18.84;93.20;100040.61;1758247;81;21036;-54
2022/07/08 00:27:29;;;;;;;239.47;155.80;;;;;;;18.82;92.56;100040.57;1752658;81;21299;-55
2022/07/08 00:29:58;;;;;;;238.17;165.63;;;;;;;18.83;92.21;100040.34;1746399;81;20934;-55
2022/07/08 00:32:25;;;;;;;238.47;161.00;;;;;;;18.87;91.15;100040.66;1753079;81;22144;-61
2022/07/08 00:34:52;;;;;;;246.93;168.63;;;;;;;18.91;90.81;100043.09;1747496;81;21753;-55
2022/07/08 00:37:19;;;;;;;238.50;164.80;;;;;;;18.94;90.26;100051.83;1756552;81;21025;-55
2022/07/08 00:39:46;;;;;;;256.03;167.93;;;;;;;18.93;89.00;100046.27;1759033;81;22689;-56
2022/07/08 00:42:14;;;;;;;266.53;176.40;;;;;;;18.92;88.67;100048.13;1754762;81;21487;-56
2022/07/08 00:44:41;;;;;;;285.77;190.30;;;;;;;18.95;87.40;100048.16;1752022;81;21021;-56
2022/07/08 00:47:08;;;;;;;310.33;203.07;;;;;;;18.93;86.56;100047.59;1753603;81;21999;-56
2022/07/08 00:49:37;;;;;;;299.23;204.67;;;;;;;18.92;86.73;100046.00;1751700;81;21405;-55
2022/07/08 00:52:05;;;;;;;320.13;220.83;;;;;;;18.96;87.24;100051.08;1754814;81;21257;-60
2022/07/08 00:54:32;;;;;;;355.80;244.33;;;;;;;18.97;86.69;100050.03;1751072;81;21468;-61
2022/07/08 00:57:00;;;;;;;359.83;250.07;;;;;;;18.99;85.32;100052.44;1755152;81;21244;-55
2022/07/08 00:59:27;;;;;;;367.90;257.70;;;;;;;19.02;84.47;100055.40;1748024;81;20979;-56
2022/07/08 01:01:54;;;;;;;358.63;244.83;;;;;;;19.10;83.64;100049.69;1754124;81;21056;-63
2022/07/08 01:04:22;;;;;;;347.87;242.87;;;;;;;19.12;82.83;100049.44;1751594;81;21278;-54
2022/07/08 01:06:49;;;;;;;338.00;230.73;;;;;;;19.11;83.69;100049.96;1756865;81;20966;-58
2022/07/08 01:09:16;;;;;;;309.73;222.60;;;;;;;19.08;85.45;100041.20;1750303;81;22031;-55
2022/07/08 01:11:46;;;;;;;314.23;220.10;;;;;;;19.05;86.26;100051.45;1752606;81;21535;-56
2022/07/08 01:14:14;;;;;;;313.40;213.83;;;;;;;19.00;85.94;100053.51;1759204;81;21660;-58
2022/07/08 01:16:42;;;;;;;296.43;207.50;;;;;;;18.99;86.01;100056.41;1745704;81;21162;-63
2022/07/08 01:19:09;;;;;;;288.70;197.90;;;;;;;18.99;86.14;100058.52;1723589;83;21689;-56
2022/07/08 01:21:36;;;;;;;285.57;198.07;;;;;;;19.00;85.74;100053.51;1746792;81;21377;-57
2022/07/08 01:24:04;;;;;;;257.70;186.60;;;;;;;18.99;86.48;100048.48;1723456;83;21122;-63
2022/07/08 01:26:31;;;;;;;275.90;190.23;;;;;;;18.95;87.70;100053.45;1750486;81;20915;-56
2022/07/08 01:29:00;;;;;;;270.50;190.47;;;;;;;18.92;88.55;100052.61;1717197;81;21291;-56
2022/07/08 01:31:29;;;;;;;269.30;187.07;;;;;;;18.86;89.81;100052.24;1753974;81;21036;-56
2022/07/08 01:33:56;;;;;;;251.87;178.97;;;;;;;18.79;93.64;100054.25;1713663;83;21076;-62
2022/07/08 01:36:23;;;;;;;245.97;173.07;;;;;;;18.66;97.16;100058.80;1756260;81;20983;-54
2022/07/08 01:38:50;;;;;;;244.73;167.50;;;;;;;18.54;100.00;100054.66;1743940;81;20938;-60
2022/07/08 01:41:18;;;;;;;228.20;163.30;;;;;;;18.43;100.00;100066.88;1733452;81;22193;-55
2022/07/08 01:43:45;;;;;;;240.90;170.73;;;;;;;18.32;100.00;100061.95;1748163;81;20978;-55
2022/07/08 01:46:12;;;;;;;239.80;166.33;;;;;;;18.22;100.00;100066.55;1751393;81;21080;-57
2022/07/08 01:48:39;;;;;;;255.77;178.63;;;;;;;18.20;100.00;100062.02;1748513;81;21470;-56
2022/07/08 01:51:08;;;;;;;271.20;190.20;;;;;;;18.19;100.00;100063.06;1740694;81;21092;-56
2022/07/08 01:53:37;;;;;;;289.03;194.30;;;;;;;18.22;100.00;100059.95;1749720;81;21310;-55
2022/07/08 01:56:05;;;;;;;277.33;189.43;;;;;;;18.32;100.00;100065.91;1742725;81;20977;-57
2022/07/08 01:58:32;;;;;;;273.63;188.90;;;;;;;18.42;100.00;100067.92;1751366;81;21045;-56
2022/07/08 02:00:59;;;;;;;266.60;184.27;;;;;;;18.50;100.00;100071.48;1745177;81;20986;-59
2022/07/08 02:03:26;;;;;;;261.37;183.50;;;;;;;18.57;100.00;100075.30;1752486;81;21045;-55
2022/07/08 02:05:54;;;;;;;267.50;186.00;;;;;;;18.67;100.00;100073.59;1748074;81;22265;-56
2022/07/08 02:08:23;;;;;;;244.40;175.47;;;;;;;18.82;100.00;100075.70;1753048;81;21058;-56
2022/07/08 02:13:37;;;;;;;226.33;163.00;;;;;;;19.14;100.00;100067.17;1739725;81;21022;-57
2022/07/08 02:16:05;;;;;;;225.33;163.30;;;;;;;19.31;100.00;100065.80;1749709;81;21037;-58
2022/07/08 02:18:33;;;;;;;224.80;158.93;;;;;;;19.52;100.00;100071.63;1736403;81;21239;-63
2022/07/08 02:21:01;;;;;;;244.97;163.80;;;;;;;19.73;100.00;100060.77;1751930;81;20923;-58
2022/07/08 02:23:28;;;;;;;250.83;170.83;;;;;;;19.98;100.00;100068.19;1740409;81;20988;-55
2022/07/08 02:25:56;;;;;;;253.30;178.73;;;;;;;20.27;100.00;100073.23;1749416;81;20953;-64
2022/07/08 02:28:23;;;;;;;241.33;171.47;;;;;;;20.58;100.00;100072.45;1744644;81;21595;-54
2022/07/08 02:30:52;;;;;;;241.77;172.13;;;;;;;20.95;99.19;100070.83;1749835;81;21176;-58
2022/07/08 02:33:19;;;;;;;243.50;174.97;;;;;;;21.30;94.21;100064.41;1742085;81;21437;-55
2022/07/08 02:35:46;;;;;;;230.77;170.17;;;;;;;21.65;91.25;100067.48;1719836;83;21496;-56
2022/07/08 02:38:14;;;;;;;233.97;173.20;;;;;;;22.04;89.49;100060.66;1756106;81;22383;-56
2022/07/08 02:40:41;;;;;;;244.20;173.73;;;;;;;22.47;83.26;100061.26;1753638;81;21522;-58
2022/07/08 02:43:10;;;;;;;241.90;175.17;;;;;;;22.80;75.03;100062.53;1752458;81;21614;-56
2022/07/08 02:45:38;;;;;;;244.40;177.63;;;;;;;23.09;70.24;100062.52;1748630;81;21470;-60
2022/07/08 02:48:06;;;;;;;248.27;182.50;;;;;;;23.40;65.94;100062.66;1746279;81;21261;-56
2022/07/08 02:50:34;;;;;;;264.80;194.50;;;;;;;23.64;62.03;100059.34;1756201;81;21358;-55
2022/07/08 02:53:02;;;;;;;273.07;202.63;;;;;;;23.91;58.31;100064.30;1715841;83;21054;-56
2022/07/08 02:55:29;;;;;;;272.33;200.60;;;;;;;24.23;55.68;100068.58;1746173;81;22316;-56
2022/07/08 02:57:57;;;;;;;273.73;203.67;;;;;;;24.55;53.96;100069.15;1747253;81;21509;-56
2022/07/08 03:00:24;;;;;;;267.00;203.40;;;;;;;24.84;51.92;100069.15;1747399;81;21037;-56
2022/07/08 03:02:52;;;;;;;285.73;210.07;;;;;;;25.11;51.08;100074.74;1750183;81;21656;-64
2022/07/08 03:05:19;;;;;;;290.73;216.63;;;;;;;25.42;50.74;100077.05;1691297;84;21630;-56
2022/07/08 03:07:47;;;;;;;322.73;243.97;;;;;;;25.77;49.43;100079.02;1699178;84;21857;-64
2022/07/08 03:10:14;;;;;;;346.93;265.23;;;;;;;26.15;48.45;100077.16;1710569;83;21975;-56
2022/07/08 03:12:43;;;;;;;328.80;247.07;;;;;;;26.50;46.16;100073.13;1692825;84;21026;-55
2022/07/08 03:15:11;;;;;;;321.73;244.27;;;;;;;26.72;46.14;100068.48;1747354;81;20999;-56
2022/07/08 03:17:38;;;;;;;345.12;262.65;;;;;;;26.93;45.64;100071.55;1745029;81;21040;-55
2022/07/08 03:20:06;;;;;;;339.57;260.90;;;;;;;27.08;44.55;100069.13;1712213;83;21160;-57
2022/07/08 03:22:34;;;;;;;379.63;288.85;;;;;;;27.15;44.13;100075.70;1709626;83;22471;-57
2022/07/08 03:25:04;;;;;;;378.45;288.32;;;;;;;27.27;43.22;100072.52;1699536;84;21007;-59
2022/07/08 03:27:32;;;;;;;420.08;323.70;;;;;;;27.51;42.10;100072.86;1711305;83;21021;-57
2022/07/08 03:29:59;;;;;;;408.75;319.25;;;;;;;27.77;40.83;100069.09;1714700;83;21157;-57
2022/07/08 03:32:26;;;;;;;437.12;347.95;;;;;;;28.05;40.21;100072.48;1712458;83;21147;-55
2022/07/08 03:34:53;;;;;;;433.60;348.38;;;;;;;28.25;39.01;100072.53;1707639;83;21058;-55
2022/07/08 03:37:23;;;;;;;429.18;341.60;;;;;;;28.44;39.33;100068.34;1713309;83;21006;-57
2022/07/08 03:39:50;;;;;;;409.63;328.52;;;;;;;28.65;38.50;100070.76;1710478;83;21600;-56
2022/07/08 03:42:18;;;;;;;395.40;311.57;;;;;;;28.85;37.72;100072.89;1677743;84;21055;-58
2022/07/08 03:44:46;;;;;;;390.73;312.30;;;;;;;29.07;37.46;100080.66;1696851;84;22123;-58
2022/07/08 03:47:13;;;;;;;401.65;313.92;;;;;;;29.17;37.18;100080.39;1696672;84;21074;-59
2022/07/08 03:49:40;;;;;;;384.23;306.98;;;;;;;29.13;37.18;100085.33;1711508;83;21170;-56
2022/07/08 03:52:07;;;;;;;358.57;286.90;;;;;;;28.99;37.53;100088.14;1699543;84;21031;-63
2022/07/08 03:54:34;;;;;;;389.52;303.58;;;;;;;28.90;38.24;100084.58;1688595;84;21062;-56
2022/07/08 03:57:02;;;;;;;393.55;310.30;;;;;;;28.99;37.92;100088.92;1699347;84;21170;-57
2022/07/08 03:59:29;;;;;;;404.45;313.23;;;;;;;29.06;37.75;100091.16;1691930;84;21540;-58
2022/07/08 04:01:57;;;;;;;395.67;311.57;;;;;;;29.10;38.35;100094.81;1712734;83;21105;-55
2022/07/08 04:04:24;;;;;;;374.23;295.67;;;;;;;29.31;37.75;100096.35;1694494;84;21161;-56
2022/07/08 04:06:52;;;;;;;346.43;268.73;;;;;;;29.64;37.24;100088.71;1696092;84;21456;-55
2022/07/08 04:09:20;;;;;;;326.98;257.57;;;;;;;30.11;36.42;100090.20;1710455;82;21803;-57
2022/07/08 04:11:48;;;;;;;302.95;242.05;;;;;;;30.42;35.93;100088.70;1686299;84;21526;-56
2022/07/08 04:14:15;;;;;;;258.07;211.07;;;;;;;30.88;35.57;100089.06;1696474;84;21049;-63
2022/07/08 04:16:43;;;;;;;249.58;199.90;;;;;;;31.42;34.29;100085.23;1683565;84;21137;-55
2022/07/08 04:19:10;;;;;;;230.67;178.82;;;;;;;31.90;33.75;100090.70;1669263;85;20978;-57
2022/07/08 04:21:40;;;;;;;205.75;166.12;;;;;;;32.52;32.89;100084.41;1687473;84;22198;-55
2022/07/08 04:24:08;;;;;;;173.22;141.40;;;;;;;33.21;31.62;100085.47;1695189;84;21474;-62
2022/07/08 04:26:35;;;;;;;192.65;150.72;;;;;;;33.68;30.46;100089.03;1663428;85;21196;-57
2022/07/08 04:29:03;;;;;;;179.93;147.60;;;;;;;34.11;30.14;100088.31;1725386;82;21085;-62
2022/07/08 04:31:31;;;;;;;160.28;132.50;;;;;;;34.51;29.27;100095.58;1728035;82;21463;-56
2022/07/08 04:33:58;;;;;;;162.80;130.12;;;;;;;34.82;29.06;100098.06;1715705;82;21166;-57
2022/07/08 04:36:25;;;;;;;132.35;109.45;;;;;;;35.24;28.37;100094.80;1729767;82;21016;-65
2022/07/08 04:38:52;;;;;;;137.15;115.15;;;;;;;35.50;26.87;100086.89;1725544;82;20911;-57
2022/07/08 04:41:19;;;;;;;142.25;113.25;;;;;;;35.50;27.00;100087.47;1730353;82;21576;-59
2022/07/08 04:43:46;;;;;;;123.92;103.80;;;;;;;35.73;27.08;100097.03;1724993;82;21923;-56
2022/07/08 04:46:14;;;;;;;144.77;120.82;;;;;;;36.17;26.21;100095.38;1728446;82;21155;-56
2022/07/08 04:48:41;;;;;;;153.87;123.15;;;;;;;36.41;25.58;100095.63;1722227;82;21071;-58
2022/07/08 04:51:09;;;;;;;154.78;128.42;;;;;;;36.44;25.92;100094.30;1726456;82;21073;-59
2022/07/08 04:53:37;;;;;;;142.18;120.97;;;;;;;36.66;26.34;100096.05;1730925;82;21115;-57
2022/07/08 04:56:06;;;;;;;126.33;103.70;;;;;;;36.93;25.41;100093.56;1716905;82;21038;-57
2022/07/08 04:58:33;;;;;;;96.78;77.10;;;;;;;37.10;25.09;100094.25;1724571;82;21911;-56
2022/07/08 05:01:00;;;;;;;92.75;76.40;;;;;;;37.22;24.46;100089.95;1725354;82;21561;-61
2022/07/08 05:03:29;;;;;;;96.57;82.65;;;;;;;37.61;24.05;100093.20;1727580;82;21102;-57
2022/07/08 05:05:56;;;;;;;101.33;83.78;;;;;;;37.90;23.53;100090.85;1732255;81;21124;-58
2022/07/08 05:08:24;;;;;;;92.80;75.00;;;;;;;38.08;23.51;100089.11;1730388;82;21081;-57
2022/07/08 05:10:52;;;;;;;99.83;81.67;;;;;;;38.15;23.27;100092.45;1726571;81;21215;-63
2022/07/08 05:13:19;;;;;;;90.90;74.95;;;;;;;38.24;22.94;100088.09;1720997;82;22041;-56
2022/07/08 05:15:46;;;;;;;95.28;79.55;;;;;;;38.25;22.81;100091.78;1727938;82;21053;-58
2022/07/08 05:18:14;;;;;;;93.90;81.70;;;;;;;38.15;22.30;100096.53;1732763;82;21619;-59
2022/07/08 05:20:41;;;;;;;109.72;88.25;;;;;;;37.90;22.80;100089.48;1729613;82;21080;-62
2022/07/08 05:23:08;;;;;;;117.35;93.65;;;;;;;37.91;23.27;100089.11;1726678;81;21141;-58
2022/07/08 05:25:36;;;;;;;112.00;91.28;;;;;;;38.24;22.97;100089.45;1731146;82;20931;-58
2022/07/08 05:28:04;;;;;;;122.92;101.72;;;;;;;38.52;22.51;100095.75;1725494;82;21445;-57
2022/07/08 05:30:32;;;;;;;124.72;99.87;;;;;;;38.58;22.81;100099.70;1723788;82;21026;-56
2022/07/08 05:32:59;;;;;;;125.45;105.70;;;;;;;38.82;22.81;100100.48;1728735;81;21025;-58
2022/07/08 05:35:27;;;;;;;127.75;106.07;;;;;;;38.97;22.36;100093.19;1725058;81;21421;-59
2022/07/08 05:37:54;;;;;;;142.22;116.33;;;;;;;39.03;22.21;100089.55;1729816;81;21111;-56
2022/07/08 05:40:21;;;;;;;132.52;108.12;;;;;;;38.76;22.27;100092.45;1727206;81;20957;-56
2022/07/08 05:42:49;;;;;;;129.25;110.55;;;;;;;38.57;22.81;100096.20;1730681;82;21052;-64
2022/07/08 05:45:16;;;;;;;113.88;100.42;;;;;;;38.56;22.88;100091.11;1728639;81;21053;-57
2022/07/08 05:47:44;;;;;;;127.75;102.95;;;;;;;38.83;22.84;100091.17;1722418;82;21144;-56
2022/07/08 05:50:11;;;;;;;117.80;98.58;;;;;;;39.15;22.38;100087.27;1700944;83;21545;-56
2022/07/08 05:52:38;;;;;;;98.95;86.47;;;;;;;39.20;22.39;100086.71;1693975;83;21472;-58
2022/07/08 05:55:06;;;;;;;100.78;85.28;;;;;;;39.28;21.94;100085.61;1689067;83;21705;-64
2022/07/08 05:57:34;;;;;;;102.15;87.12;;;;;;;39.10;22.22;100084.14;1721813;81;21501;-56
2022/07/08 06:00:01;;;;;;;94.83;82.85;;;;;;;39.13;22.85;100084.72;1689893;83;21304;-56
2022/07/08 06:02:30;;;;;;;90.65;80.22;;;;;;;39.39;22.29;100080.40;1725418;83;21081;-57
2022/07/08 06:04:57;;;;;;;95.53;81.67;;;;;;;39.65;22.43;100086.75;1717878;82;21050;-62
2022/07/08 06:07:25;;;;;;;88.87;75.10;;;;;;;39.84;21.98;100076.11;1722241;82;21092;-58
2022/07/08 06:09:53;;;;;;;79.58;70.45;;;;;;;39.87;21.60;100074.76;1752297;81;22002;-57
2022/07/08 06:12:20;;;;;;;83.05;69.22;;;;;;;39.97;21.62;100075.16;1748523;81;21134;-57
2022/07/08 06:14:47;;;;;;;69.82;62.13;;;;;;;40.34;21.90;100084.41;1753241;81;21005;-56
2022/07/08 06:17:15;;;;;;;84.45;69.42;;;;;;;40.87;21.02;100074.64;1701603;83;21077;-59
2022/07/08 06:19:44;;;;;;;79.53;67.10;;;;;;;41.28;20.54;100076.31;1723058;83;21323;-57
2022/07/08 06:22:12;;;;;;;76.53;64.07;;;;;;;41.23;20.13;100078.10;1750149;81;21017;-57
2022/07/08 06:24:39;;;;;;;87.62;73.75;;;;;;;41.01;20.35;100080.11;1759473;81;21242;-58
2022/07/08 06:27:07;;;;;;;80.15;65.75;;;;;;;40.97;20.35;100081.45;1749293;81;21148;-62
2022/07/08 06:29:34;;;;;;;69.47;59.65;;;;;;;41.20;20.19;100085.14;1754629;81;21588;-57
2022/07/08 06:32:04;;;;;;;72.03;56.95;;;;;;;41.39;20.18;100082.53;1749507;81;21717;-57
2022/07/08 06:34:31;;;;;;;65.50;55.48;;;;;;;41.55;19.84;100084.23;1751002;81;21514;-56
2022/07/08 06:36:59;;;;;;;76.75;67.80;;;;;;;41.38;19.78;100080.20;1752901;81;21185;-58
2022/07/08 06:39:26;;;;;;;71.40;62.58;;;;;;;41.13;20.11;100085.75;1750660;81;21505;-57
2022/07/08 06:41:55;;;;;;;79.10;64.03;;;;;;;40.88;20.41;100083.03;1755494;81;21573;-57
2022/07/08 06:44:22;;;;;;;68.20;56.53;;;;;;;40.79;20.50;100078.75;1753329;81;20851;-57
2022/07/08 06:46:49;;;;;;;68.75;58.58;;;;;;;40.90;20.36;100080.10;1753525;81;20978;-64
2022/07/08 06:49:16;;;;;;;65.22;55.40;;;;;;;41.08;19.94;100080.87;1749476;81;21253;-64
2022/07/08 06:51:44;;;;;;;66.75;56.20;;;;;;;41.29;20.08;100075.91;1754993;81;21051;-58
2022/07/08 06:56:57;;;;;;;62.55;54.23;;;;;;;41.76;19.93;100072.41;1752938;81;21018;-60
2022/07/08 06:59:24;;;;;;;64.92;56.48;;;;;;;41.89;19.93;100071.97;1749696;81;21297;-58
2022/07/08 07:01:52;;;;;;;65.17;54.83;;;;;;;41.85;19.39;100071.99;1754907;81;21115;-57
2022/07/08 07:04:21;;;;;;;56.37;48.90;;;;;;;41.89;19.31;100069.23;1739689;81;20967;-56
2022/07/08 07:06:48;;;;;;;24.23;20.80;;;;;;;41.88;18.92;100067.69;1756337;81;21631;-63
2022/07/08 07:09:15;;;;;;;17.90;13.30;;;;;;;41.92;17.30;100068.44;1759860;81;21025;-59
2022/07/08 07:11:44;;;;;;;13.80;9.98;;;;;;;41.83;16.84;100064.78;1711261;83;21355;-57
2022/07/08 07:14:12;;;;;;;12.85;8.08;;;;;;;41.60;16.53;100063.11;1756085;81;21359;-58
2022/07/08 07:16:39;;;;;;;19.45;15.10;;;;;;;41.47;16.85;100058.69;1743823;81;20935;-57
2022/07/08 07:19:07;;;;;;;19.02;16.57;;;;;;;41.60;16.90;100064.47;1723483;83;20951;-57
2022/07/08 07:21:34;;;;;;;22.93;20.02;;;;;;;41.68;16.89;100058.58;1746982;81;21528;-57
2022/07/08 07:24:01;;;;;;;20.25;16.97;;;;;;;41.98;17.49;100049.82;1729033;81;21061;-57
2022/07/08 07:26:28;;;;;;;12.10;10.75;;;;;;;42.31;16.77;100052.33;1751565;81;22546;-55
2022/07/08 07:28:56;;;;;;;12.07;7.15;;;;;;;42.07;16.75;100050.73;1718044;83;21588;-58
2022/07/08 07:31:23;;;;;;;10.05;5.62;;;;;;;41.93;16.40;100040.64;1755893;81;21048;-57
2022/07/08 07:33:50;;;;;;;7.95;6.00;;;;;;;41.71;16.19;100041.93;1742597;81;21063;-57
2022/07/08 07:36:18;;;;;;;13.20;7.85;;;;;;;41.71;16.37;100037.27;1751376;81;20990;-56
2022/07/08 07:38:45;;;;;;;8.18;6.58;;;;;;;41.76;16.28;100043.67;1744868;81;21389;-58
2022/07/08 07:41:12;;;;;;;6.28;3.58;;;;;;;41.61;15.99;100047.67;1756188;81;21511;-59
2022/07/08 07:43:41;;;;;;;5.62;3.08;;;;;;;41.14;15.79;100037.48;1751876;81;21431;-56
2022/07/08 07:46:08;;;;;;;5.12;2.80;;;;;;;40.49;15.49;100043.63;1751928;81;21058;-56
2022/07/08 07:48:37;;;;;;;6.42;2.62;;;;;;;40.13;16.13;100038.77;1748524;81;21041;-56
2022/07/08 07:51:05;;;;;;;6.72;3.00;;;;;;;40.02;15.90;100035.98;1752788;81;21091;-64
2022/07/08 07:53:32;;;;;;;7.60;3.40;;;;;;;39.96;16.13;100047.67;1749538;81;21084;-56
2022/07/08 07:55:59;;;;;;;5.50;2.85;;;;;;;39.72;16.38;100048.60;1743510;81;21065;-59
2022/07/08 07:58:26;;;;;;;5.75;3.58;;;;;;;39.40;16.39;100046.53;1751240;81;21069;-56
2022/07/08 08:00:54;;;;;;;6.33;3.08;;;;;;;39.24;16.65;100033.78;1751464;81;20975;-63
2022/07/08 08:03:21;;;;;;;5.08;3.85;;;;;;;39.15;16.35;100038.78;1751964;81;21812;-62
2022/07/08 08:05:49;;;;;;;4.92;3.85;;;;;;;39.04;16.47;100036.59;1747904;81;20972;-59
2022/07/08 08:08:16;;;;;;;8.95;3.85;;;;;;;39.26;16.30;100036.92;1730148;82;21148;-57
2022/07/08 08:10:43;;;;;;;5.72;3.37;;;;;;;39.49;17.08;100024.93;1727544;81;21081;-58
2022/07/08 08:13:10;;;;;;;7.35;3.55;;;;;;;39.49;16.91;100023.56;1723683;81;21022;-56
2022/07/08 08:15:37;;;;;;;6.17;3.95;;;;;;;39.68;17.02;100026.55;1727374;82;21258;-57
2022/07/08 08:18:05;;;;;;;6.33;4.00;;;;;;;40.07;16.77;100026.03;1723503;81;21370;-56
2022/07/08 08:20:32;;;;;;;4.80;3.95;;;;;;;40.09;16.37;100025.66;1730288;81;21505;-56
2022/07/08 08:23:00;;;;;;;4.80;4.10;;;;;;;39.68;16.55;100021.89;1724634;82;21023;-64
2022/07/08 08:25:28;;;;;;;7.78;6.37;;;;;;;39.47;17.11;100023.94;1730433;81;21083;-58
2022/07/08 08:27:56;;;;;;;9.58;6.00;;;;;;;39.11;16.55;100025.14;1726235;82;21141;-56
2022/07/08 08:30:24;;;;;;;58.55;10.55;;;;;;;38.65;16.72;100019.40;1710774;82;21081;-56
2022/07/08 08:32:51;;;;;;;8.63;5.12;;;;;;;38.53;18.16;100015.59;1729485;81;21096;-62
2022/07/08 08:35:18;;;;;;;6.75;4.22;;;;;;;38.98;17.67;100014.34;1719075;82;21140;-58
2022/07/08 08:37:46;;;;;;;8.18;4.80;;;;;;;39.33;17.19;100003.45;1730159;81;22102;-59
2022/07/08 08:40:13;;;;;;;5.92;3.70;;;;;;;39.64;17.07;100011.53;1726112;81;22370;-56
2022/07/08 08:42:43;;;;;;;5.33;4.08;;;;;;;39.88;17.30;100006.72;1731238;81;21488;-56
2022/07/08 08:45:10;;;;;;;5.97;3.75;;;;;;;40.00;16.48;100002.05;1727312;82;24049;-65
2022/07/08 08:47:38;;;;;;;6.37;4.33;;;;;;;39.94;16.67;100000.30;1723037;82;21453;-56
2022/07/08 08:52:56;;;;;;;7.55;4.75;;;;;;;39.18;16.42;99997.13;1724088;81;21759;-62
2022/07/08 08:55:32;;;;;;;7.65;4.75;;;;;;;38.32;17.77;100010.17;1724400;81;21538;-58
2022/07/08 08:58:03;;;;;;;8.83;4.70;;;;;;;37.54;17.70;100002.58;1726392;81;21030;-57
2022/07/08 09:00:32;;;;;;;7.10;4.78;;;;;;;36.88;18.57;100005.59;1734436;82;21018;-56
2022/07/08 09:02:59;;;;;;;8.95;4.65;;;;;;;36.66;19.94;99999.65;1726762;82;21520;-56
2022/07/08 09:05:27;;;;;;;12.95;8.43;;;;;;;36.57;19.58;100001.85;1725913;82;21426;-56
2022/07/08 09:07:56;;;;;;;8.90;6.78;;;;;;;36.32;20.18;99997.34;1734554;81;21618;-57
2022/07/08 09:10:24;;;;;;;10.35;7.35;;;;;;;36.22;20.36;99994.69;1739127;81;21480;-56
2022/07/08 09:13:06;;;;;;;7.03;6.10;;;;;;;36.25;20.40;99998.01;1719975;82;21863;-60
2022/07/08 09:15:37;;;;;;;11.18;6.65;;;;;;;36.45;20.83;99983.23;1720762;82;21222;-57
2022/07/08 09:18:18;;;;;;;8.35;5.87;;;;;;;36.96;20.25;99986.91;1723037;82;21563;-56
2022/07/08 09:20:50;;;;;;;9.80;5.45;;;;;;;36.96;19.64;99986.13;1731055;81;21407;-56
2022/07/08 09:23:33;;;;;;;10.23;5.70;;;;;;;36.65;19.72;99985.87;1726635;81;20954;-57
2022/07/08 09:25:59;;;;;;;7.08;5.58;;;;;;;36.49;20.13;99981.95;1670863;85;20966;-56
2022/07/08 09:28:37;;;;;;;8.58;5.95;;;;;;;36.68;20.72;99981.07;1726648;82;21587;-56
2022/07/08 09:31:08;;;;;;;7.97;5.78;;;;;;;37.10;19.99;99976.81;1726129;82;21884;-56
2022/07/08 09:33:36;;;;;;;10.78;5.85;;;;;;;37.59;19.55;99981.30;1714245;82;21026;-56
2022/07/08 09:36:04;;;;;;;8.28;4.00;;;;;;;37.97;19.21;99967.89;1722538;82;21042;-63
2022/07/08 09:38:36;;;;;;;5.55;4.08;;;;;;;38.28;18.61;99977.28;1718325;82;22106;-56
2022/07/08 09:41:05;;;;;;;4.75;3.50;;;;;;;38.42;17.98;99982.28;1723929;82;21556;-56
2022/07/08 09:43:37;;;;;;;10.20;3.73;;;;;;;38.56;17.64;99975.35;1723157;82;21157;-56
2022/07/08 09:46:04;;;;;;;5.05;2.80;;;;;;;38.84;17.00;99969.33;1718332;82;21051;-58
2022/07/08 09:48:31;;;;;;;5.53;3.33;;;;;;;39.49;16.43;99962.20;1718704;82;21394;-56
2022/07/08 09:50:59;;;;;;;3.95;3.22;;;;;;;40.04;16.07;99957.78;1722756;82;21137;-57
2022/07/08 09:53:29;;;;;;;5.62;3.08;;;;;;;40.24;15.84;99969.91;1719482;82;21093;-56
2022/07/08 09:55:56;;;;;;;4.97;2.70;;;;;;;39.99;15.86;99963.64;1712650;82;21250;-58
2022/07/08 09:58:27;;;;;;;4.85;2.33;;;;;;;39.70;16.13;99969.06;1720524;83;21382;-57
2022/07/08 10:00:57;;;;;;;5.17;2.42;;;;;;;39.60;16.51;99963.78;1714938;83;21078;-57
2022/07/08 10:03:25;;;;;;;3.67;2.33;;;;;;;39.45;16.73;99958.69;1721599;83;20931;-58
2022/07/08 10:05:54;;;;;;;4.15;2.80;;;;;;;39.15;16.72;99962.45;1725608;83;20898;-58
2022/07/08 10:08:26;;;;;;;4.87;2.80;;;;;;;38.80;16.91;99968.53;1715242;82;21283;-59
2022/07/08 10:10:53;;;;;;;3.65;2.60;;;;;;;38.58;16.77;99965.65;1719015;83;20935;-58
2022/07/08 10:13:21;;;;;;;3.58;2.30;;;;;;;38.41;17.28;99965.72;1744070;81;20978;-56
2022/07/08 10:15:58;;;;;;;3.40;2.35;;;;;;;38.45;17.45;99965.74;1750821;81;20986;-59
2022/07/08 10:18:42;;;;;;;5.50;2.98;;;;;;;38.64;17.82;99960.61;1747975;81;21478;-56
2022/07/08 10:21:10;;;;;;;3.65;2.27;;;;;;;38.88;16.89;99961.95;1751294;81;21219;-60
2022/07/08 10:23:44;;;;;;;4.78;3.12;;;;;;;38.94;16.65;99955.73;1748904;81;21017;-56
2022/07/08 10:26:11;;;;;;;5.78;3.20;;;;;;;38.90;16.47;99941.90;1753753;81;20939;-56
2022/07/08 10:28:40;;;;;;;5.37;3.50;;;;;;;38.56;16.79;99954.34;1742227;81;21032;-56
2022/07/08 10:31:19;;;;;;;4.72;3.80;;;;;;;37.87;17.43;99954.16;1753545;81;20997;-63
2022/07/08 10:33:46;;;;;;;6.80;3.80;;;;;;;37.09;17.94;99955.42;1743315;81;21570;-56
2022/07/08 10:36:20;;;;;;;4.20;3.45;;;;;;;36.43;18.81;99951.57;1755992;81;20962;-57
2022/07/08 10:38:48;;;;;;;5.83;3.87;;;;;;;36.06;19.46;99949.44;1698343;82;21118;-65
2022/07/08 10:41:23;;;;;;;8.33;4.60;;;;;;;35.72;19.82;99951.72;1756237;81;21045;-56
2022/07/08 10:44:02;;;;;;;6.22;3.52;;;;;;;35.50;20.32;99947.28;1742278;81;21109;-56
2022/07/08 10:46:26;;;;;;;4.00;3.17;;;;;;;35.52;20.22;99950.41;1741510;81;21156;-56
2022/07/08 10:48:56;;;;;;;4.17;3.20;;;;;;;35.81;20.28;99940.09;1747202;81;21467;-63
2022/07/08 10:51:29;;;;;;;3.80;3.15;;;;;;;36.21;20.09;99940.17;1753442;81;21958;-57
2022/07/08 10:54:01;;;;;;;5.05;3.12;;;;;;;36.55;19.48;99937.03;1749928;81;21013;-56
2022/07/08 10:56:53;;;;;;;4.85;3.70;;;;;;;36.90;19.19;99937.30;1735905;81;22245;-58
2022/07/08 10:59:31;;;;;;;6.10;3.52;;;;;;;37.30;18.65;99936.66;1749845;81;21123;-56
2022/07/08 11:02:05;;;;;;;6.33;4.20;;;;;;;37.80;18.62;99929.61;1751409;81;20870;-64
2022/07/08 11:04:37;;;;;;;6.37;5.12;;;;;;;38.00;18.27;99926.10;1746983;81;21821;-62
2022/07/08 11:07:22;;;;;;;6.47;3.98;;;;;;;37.97;18.12;99922.22;1754677;81;21623;-56
2022/07/08 11:09:54;;;;;;;6.10;4.42;;;;;;;37.85;18.40;99927.34;1758269;81;21044;-65
2022/07/08 11:12:34;;;;;;;6.05;4.08;;;;;;;37.81;18.53;99909.40;1745052;81;21905;-57
2022/07/08 11:15:05;;;;;;;6.47;3.90;;;;;;;37.78;18.58;99921.05;1752032;81;20951;-59
2022/07/08 11:17:36;;;;;;;5.50;3.80;;;;;;;37.64;18.27;99925.77;1751694;81;21069;-65
2022/07/08 11:20:14;;;;;;;6.90;4.53;;;;;;;37.50;17.94;99922.33;1756109;81;21077;-59